Etihad Airways Virtual Airport Information Service

Istanbul Airport

ICAO: LTFM Country: Turkey
Latitude: 41.2671 Longitude: 28.7298
Latest Arrival : QTR239 (OTHH-LTFM) Latest Departure : QTR240 (LTFM-OTHH)


WX CaptureLIVE
Data provided by noaa.gov | Recorded at 23:37:52

METAR : LTFM 182320Z 32009KT 9999 SCT025 BKN090 20/18 Q1013 NOSIG RMK RWY17L 30006KT RWY34L 29005KT RWY16R 31006KT 270V350 RWY36 32007KT RWY18 30005KT

TAF : LTFM 181640Z 1818/1924 VRB02KT 9999 SCT030 BKN090 TEMPO 1818/1822 -SHRA FEW020CB BKN025 PROB30 TEMPO 1909/1913 06015KT -TSRA FEW018CB BKN025 BECMG 1915/1918 20012KT CAVOK


Runway Data for LTFM
Data provided by openaviationdata.com

Runway ID Mag Var Hdg Length Elevation Surface ILS Freq ILS Id ILS Slope

Istanbul Airport, Turkey
Use only for reference purposes